createdAt,value
2023-03-10T00:00:47.739Z,0.32
2023-03-10T00:01:57.699Z,0.31
2023-03-10T00:03:00.458Z,0.34
2023-03-10T00:04:03.418Z,0.31
2023-03-10T00:05:06.593Z,0.32
2023-03-10T00:06:10.685Z,0.34
2023-03-10T00:07:13.530Z,0.32
2023-03-10T00:08:16.274Z,0.32
2023-03-10T00:09:19.004Z,0.31
2023-03-10T00:10:21.797Z,0.32
2023-03-10T00:11:24.530Z,0.32
2023-03-10T00:12:28.075Z,0.32
2023-03-10T00:13:30.949Z,0.32
2023-03-10T00:14:33.701Z,0.32
2023-03-10T00:15:36.516Z,0.32
2023-03-10T00:16:39.512Z,0.35
2023-03-10T00:17:42.423Z,0.34
2023-03-10T00:18:46.454Z,0.35
2023-03-10T00:19:49.269Z,0.36
2023-03-10T00:20:52.652Z,0.32
2023-03-10T00:21:55.411Z,0.32
2023-03-10T00:22:58.184Z,0.33
2023-03-10T00:24:01.538Z,0.31
2023-03-10T00:25:04.572Z,0.32
2023-03-10T00:26:07.375Z,0.32
2023-03-10T00:27:10.164Z,0.33
2023-03-10T00:28:12.912Z,0.31
2023-03-10T00:29:15.891Z,0.31
2023-03-10T00:30:18.721Z,0.32
2023-03-10T00:31:23.169Z,0.33
2023-03-10T00:32:26.408Z,0.32
2023-03-10T00:33:30.904Z,0.31
2023-03-10T00:34:33.675Z,0.31
2023-03-10T00:35:36.473Z,0.32
2023-03-10T00:36:42.281Z,0.34
2023-03-10T00:37:45.236Z,0.34
2023-03-10T00:38:48.703Z,0.31
2023-03-10T00:39:52.512Z,0.34
2023-03-10T00:41:02.183Z,0.31
2023-03-10T00:42:05.250Z,0.33
2023-03-10T00:43:08.051Z,0.32
2023-03-10T00:44:11.598Z,0.31
2023-03-10T00:45:14.415Z,0.30
2023-03-10T00:46:17.917Z,0.29
2023-03-10T00:47:20.687Z,0.27
2023-03-10T00:48:23.727Z,0.27
2023-03-10T00:49:26.554Z,0.29
2023-03-10T00:50:29.294Z,0.27
2023-03-10T00:51:32.094Z,0.27
2023-03-10T00:52:34.870Z,0.29
2023-03-10T00:53:38.570Z,0.27
2023-03-10T00:54:42.133Z,0.25
2023-03-10T00:55:45.034Z,0.27
2023-03-10T00:56:47.783Z,0.25
2023-03-10T00:57:50.680Z,0.24
2023-03-10T00:58:54.729Z,0.26
2023-03-10T00:59:57.490Z,0.24
2023-03-10T01:01:00.713Z,0.24
2023-03-10T01:02:03.796Z,0.26
2023-03-10T01:03:07.162Z,0.27
2023-03-10T01:04:12.973Z,0.25
2023-03-10T01:05:15.870Z,0.27
2023-03-10T01:06:19.067Z,0.25
2023-03-10T01:07:21.998Z,0.25
2023-03-10T01:08:24.754Z,0.27
2023-03-10T01:09:27.607Z,0.26
2023-03-10T01:10:30.353Z,0.24
2023-03-10T01:11:33.618Z,0.25
2023-03-10T01:12:36.395Z,0.24
2023-03-10T01:13:41.033Z,0.24
2023-03-10T01:14:44.109Z,0.26
2023-03-10T01:15:50.975Z,0.24
2023-03-10T01:16:53.907Z,0.27
2023-03-10T01:17:56.800Z,0.25
2023-03-10T01:18:59.638Z,0.24
2023-03-10T01:20:07.014Z,0.26
2023-03-10T01:21:14.520Z,0.26
2023-03-10T01:22:17.296Z,0.25
2023-03-10T01:23:21.467Z,0.22
2023-03-10T01:24:25.712Z,0.24
2023-03-10T01:25:28.939Z,0.22
2023-03-10T01:26:32.128Z,0.25
2023-03-10T01:27:34.902Z,0.22
2023-03-10T01:28:37.764Z,0.24
2023-03-10T01:29:40.636Z,0.21
2023-03-10T01:30:43.619Z,0.23
2023-03-10T01:31:50.131Z,0.21
2023-03-10T01:32:53.013Z,0.23
2023-03-10T01:33:55.827Z,0.20
2023-03-10T01:34:58.588Z,0.22
2023-03-10T01:36:02.034Z,0.19
2023-03-10T01:37:04.961Z,0.19
2023-03-10T01:38:08.486Z,0.22
2023-03-10T01:39:11.282Z,0.19
2023-03-10T01:40:18.705Z,0.22
2023-03-10T01:41:22.339Z,0.20
2023-03-10T01:42:25.088Z,0.20
2023-03-10T01:43:29.032Z,0.20
2023-03-10T01:44:31.836Z,0.22
2023-03-10T01:45:34.578Z,0.21
2023-03-10T01:46:37.699Z,0.21
2023-03-10T01:47:43.894Z,0.23
2023-03-10T01:48:46.710Z,0.20
2023-03-10T01:49:49.486Z,0.21
2023-03-10T01:50:54.149Z,0.21
2023-03-10T01:52:00.027Z,0.22
2023-03-10T01:53:03.242Z,0.22
2023-03-10T01:54:09.406Z,0.21
2023-03-10T01:55:15.339Z,0.22
2023-03-10T01:56:18.362Z,0.20
2023-03-10T01:57:23.515Z,0.20
2023-03-10T01:58:29.969Z,0.22
2023-03-10T01:59:33.467Z,0.22
2023-03-10T02:00:36.791Z,0.23
2023-03-10T02:01:39.628Z,0.20
2023-03-10T02:03:03.253Z,0.22
2023-03-10T02:04:14.150Z,0.23
2023-03-10T02:05:18.949Z,0.22
2023-03-10T02:06:22.013Z,0.21
2023-03-10T02:07:29.084Z,0.23
2023-03-10T02:08:34.987Z,0.21
2023-03-10T02:09:40.153Z,0.23
2023-03-10T02:10:42.947Z,0.23
2023-03-10T02:11:47.105Z,0.21
2023-03-10T02:12:49.822Z,0.21
2023-03-10T02:13:53.147Z,0.22
2023-03-10T02:14:57.075Z,0.22
2023-03-10T02:16:01.604Z,0.23
2023-03-10T02:17:09.066Z,0.24
2023-03-10T02:18:13.435Z,0.21
2023-03-10T02:19:25.776Z,0.23
2023-03-10T02:20:47.207Z,0.21
2023-03-10T02:21:58.678Z,0.22
2023-03-10T02:23:01.758Z,0.24
2023-03-10T02:24:10.392Z,0.21
2023-03-10T02:25:42.240Z,0.21
2023-03-10T02:26:51.525Z,0.22
2023-03-10T02:27:57.953Z,0.21
2023-03-10T02:29:02.806Z,0.23
2023-03-10T02:30:11.273Z,0.22
2023-03-10T02:31:14.949Z,0.23
2023-03-10T02:32:18.793Z,0.23
2023-03-10T02:33:24.268Z,0.24
2023-03-10T02:34:28.113Z,0.24
2023-03-10T02:35:31.243Z,0.24
2023-03-10T02:36:37.666Z,0.24
2023-03-10T02:37:40.535Z,0.24
2023-03-10T02:38:43.341Z,0.24
2023-03-10T02:39:46.354Z,0.24
2023-03-10T02:40:52.343Z,0.24
2023-03-10T02:41:58.031Z,0.25
2023-03-10T02:43:02.714Z,0.25
2023-03-10T02:44:07.975Z,0.24
2023-03-10T02:45:10.896Z,0.24
2023-03-10T02:46:14.642Z,0.25
2023-03-10T02:47:18.594Z,0.25
2023-03-10T02:48:28.362Z,0.26
2023-03-10T02:49:32.435Z,0.26
2023-03-10T02:50:36.934Z,0.26
2023-03-10T02:51:41.570Z,0.26
2023-03-10T02:52:50.661Z,0.27
2023-03-10T02:53:53.570Z,0.27
2023-03-10T02:54:56.597Z,0.27
2023-03-10T02:56:00.159Z,0.27
2023-03-10T02:57:03.729Z,0.27
2023-03-10T02:58:07.041Z,0.27
2023-03-10T02:59:10.130Z,0.27
2023-03-10T03:00:16.314Z,0.28
2023-03-10T03:01:19.211Z,0.28
2023-03-10T03:02:22.028Z,0.27
2023-03-10T03:03:25.023Z,0.28
2023-03-10T03:04:28.975Z,0.28
2023-03-10T03:08:25.382Z,0.29
2023-03-10T03:09:28.430Z,0.28
2023-03-10T03:10:33.073Z,0.29
2023-03-10T03:11:35.961Z,0.29
2023-03-10T03:12:39.803Z,0.30
2023-03-10T03:13:42.910Z,0.30
2023-03-10T03:14:45.857Z,0.30
2023-03-10T03:15:50.624Z,0.30
2023-03-10T03:16:53.798Z,0.28
2023-03-10T03:17:58.702Z,0.31
2023-03-10T03:19:02.084Z,0.31
2023-03-10T03:20:14.128Z,0.28
2023-03-10T03:21:17.732Z,0.28
2023-03-10T03:22:21.715Z,0.32
2023-03-10T03:23:24.862Z,0.29
2023-03-10T03:24:27.827Z,0.32
2023-03-10T03:25:31.027Z,0.31
2023-03-10T03:26:34.516Z,0.34
2023-03-10T03:27:43.947Z,0.34
2023-03-10T03:28:47.221Z,0.34
2023-03-10T03:29:50.456Z,0.32
2023-03-10T03:30:53.456Z,0.31
2023-03-10T03:31:56.361Z,0.31
2023-03-10T03:33:03.706Z,0.35
2023-03-10T03:34:07.416Z,0.35
2023-03-10T03:35:21.513Z,0.35
2023-03-10T03:36:24.499Z,0.35
2023-03-10T03:37:27.570Z,0.35
2023-03-10T03:38:32.726Z,0.36
2023-03-10T03:39:35.548Z,0.36
2023-03-10T03:40:41.355Z,0.33
2023-03-10T03:41:44.601Z,0.35
2023-03-10T03:42:49.055Z,0.38
2023-03-10T03:43:52.346Z,0.38
2023-03-10T03:44:55.121Z,0.38
2023-03-10T03:45:58.669Z,0.39
2023-03-10T03:47:01.704Z,0.38
2023-03-10T03:48:05.164Z,0.38
2023-03-10T03:49:08.946Z,0.38
2023-03-10T03:50:13.327Z,0.38
2023-03-10T03:51:16.451Z,0.39
2023-03-10T03:52:19.612Z,0.39
2023-03-10T03:53:22.774Z,0.36
2023-03-10T03:54:25.601Z,0.37
2023-03-10T03:55:29.254Z,0.40
2023-03-10T03:56:32.920Z,0.41
2023-03-10T03:57:36.605Z,0.37
2023-03-10T03:58:39.698Z,0.38
2023-03-10T03:59:42.530Z,0.38
2023-03-10T04:00:45.283Z,0.39
2023-03-10T04:01:48.480Z,0.39
2023-03-10T04:02:51.935Z,0.40
2023-03-10T04:03:54.959Z,0.40
2023-03-10T04:04:57.983Z,0.41
2023-03-10T04:06:00.777Z,0.42
2023-03-10T04:07:03.593Z,0.42
2023-03-10T04:08:07.060Z,0.43
2023-03-10T04:09:10.723Z,0.43
2023-03-10T04:10:15.995Z,0.44
2023-03-10T04:11:18.844Z,0.46
2023-03-10T04:12:22.674Z,0.44
2023-03-10T04:13:25.635Z,0.47
2023-03-10T04:14:28.693Z,0.49
2023-03-10T04:15:31.696Z,0.49
2023-03-10T04:16:34.932Z,0.47
2023-03-10T04:17:38.623Z,0.48
2023-03-10T04:18:41.379Z,0.52
2023-03-10T04:19:54.151Z,0.52
2023-03-10T04:21:04.310Z,0.53
2023-03-10T04:22:08.674Z,0.50
2023-03-10T04:23:12.148Z,0.51
2023-03-10T04:24:16.172Z,0.51
2023-03-10T04:25:19.269Z,0.53
2023-03-10T04:26:22.764Z,0.55
2023-03-10T04:27:25.627Z,0.52
2023-03-10T04:28:28.340Z,0.56
2023-03-10T04:29:31.500Z,0.57
2023-03-10T04:30:34.439Z,0.54
2023-03-10T04:31:37.645Z,0.55
2023-03-10T04:32:41.515Z,0.60
2023-03-10T04:33:45.171Z,0.58
2023-03-10T04:34:48.494Z,0.58
2023-03-10T04:35:52.802Z,0.58
2023-03-10T04:36:56.589Z,0.63
2023-03-10T04:37:59.466Z,0.61
2023-03-10T04:39:02.574Z,0.62
2023-03-10T04:40:09.515Z,0.64
2023-03-10T04:41:12.637Z,0.67
2023-03-10T04:42:17.462Z,0.66
2023-03-10T04:43:20.219Z,0.67
2023-03-10T04:44:30.784Z,0.66
2023-03-10T04:45:34.084Z,0.70
2023-03-10T04:46:37.241Z,0.71
2023-03-10T04:47:40.412Z,0.71
2023-03-10T04:48:43.530Z,0.69
2023-03-10T04:49:46.631Z,0.70
2023-03-10T04:50:57.481Z,0.72
2023-03-10T04:52:00.560Z,0.74
2023-03-10T04:53:03.919Z,0.75
2023-03-10T04:54:06.918Z,0.75
2023-03-10T04:55:09.960Z,0.73
2023-03-10T04:56:12.756Z,0.75
2023-03-10T04:57:16.354Z,0.77
2023-03-10T04:58:20.287Z,0.76
2023-03-10T04:59:23.132Z,0.77
2023-03-10T05:00:26.087Z,0.76
2023-03-10T05:01:33.062Z,0.77
2023-03-10T05:02:38.751Z,0.80
2023-03-10T05:03:41.607Z,0.80
2023-03-10T05:04:45.107Z,0.78
2023-03-10T05:05:48.040Z,0.78
2023-03-10T05:06:51.636Z,0.79
2023-03-10T05:08:04.702Z,0.79
2023-03-10T05:09:07.571Z,0.80
2023-03-10T05:10:10.863Z,0.81
2023-03-10T05:11:14.172Z,0.85
2023-03-10T05:12:17.607Z,0.86
2023-03-10T05:13:20.779Z,0.86
2023-03-10T05:14:23.592Z,0.87
2023-03-10T05:15:26.674Z,0.86
2023-03-10T05:16:29.505Z,0.88
2023-03-10T05:17:32.702Z,0.89
2023-03-10T05:18:36.213Z,0.91
2023-03-10T05:19:39.775Z,0.91
2023-03-10T05:20:42.804Z,0.91
2023-03-10T05:21:45.556Z,0.92
2023-03-10T05:22:48.407Z,0.93
2023-03-10T05:23:51.865Z,0.93
2023-03-10T05:24:55.003Z,0.93
2023-03-10T05:25:58.631Z,0.94
2023-03-10T05:27:05.560Z,0.94
2023-03-10T05:28:08.468Z,0.96
2023-03-10T05:29:11.278Z,0.98
2023-03-10T05:30:19.012Z,0.99
2023-03-10T05:31:26.411Z,1.01
2023-03-10T05:32:36.237Z,1.01
2023-03-10T05:33:39.602Z,1.03
2023-03-10T05:34:42.421Z,1.01
2023-03-10T05:35:45.321Z,1.02
2023-03-10T05:36:48.560Z,1.03
2023-03-10T05:37:51.927Z,1.04
2023-03-10T05:38:55.119Z,1.08
2023-03-10T05:39:59.316Z,1.07
2023-03-10T05:41:02.533Z,1.08
2023-03-10T05:42:05.573Z,1.09
2023-03-10T05:43:09.884Z,1.13
2023-03-10T05:44:13.360Z,1.12
2023-03-10T05:45:16.859Z,1.13
2023-03-10T05:46:19.941Z,1.14
2023-03-10T05:47:27.762Z,1.15
2023-03-10T05:48:30.866Z,1.18
2023-03-10T05:49:36.685Z,1.18
2023-03-10T05:50:40.199Z,1.20
2023-03-10T05:51:43.012Z,1.19
2023-03-10T05:52:45.977Z,1.20
2023-03-10T05:53:48.876Z,1.24
2023-03-10T05:54:55.848Z,1.25
2023-03-10T05:55:59.097Z,1.24
2023-03-10T05:57:02.056Z,1.29
2023-03-10T05:58:05.225Z,1.28
2023-03-10T05:59:08.085Z,1.29
2023-03-10T06:00:12.570Z,1.30
2023-03-10T06:01:19.172Z,1.34
2023-03-10T06:02:21.960Z,1.32
2023-03-10T06:03:25.084Z,1.34
2023-03-10T06:04:32.446Z,1.38
2023-03-10T06:05:35.215Z,1.39
2023-03-10T06:06:38.549Z,1.37
2023-03-10T06:07:41.438Z,1.41
2023-03-10T06:08:44.405Z,1.39
2023-03-10T06:09:47.161Z,1.43
2023-03-10T06:10:50.148Z,1.43
2023-03-10T06:11:53.075Z,1.45
2023-03-10T06:12:56.483Z,1.46
2023-03-10T06:13:59.716Z,1.48
2023-03-10T06:15:02.519Z,1.47
2023-03-10T06:16:05.958Z,1.50
2023-03-10T06:17:08.741Z,1.54
2023-03-10T06:18:11.460Z,1.52
2023-03-10T06:19:14.276Z,1.54
2023-03-10T06:20:17.088Z,1.54
2023-03-10T06:21:19.832Z,1.55
2023-03-10T06:22:22.588Z,1.56
2023-03-10T06:23:26.299Z,1.57
2023-03-10T06:24:29.195Z,1.58
2023-03-10T06:25:31.972Z,1.57
2023-03-10T06:26:34.672Z,1.59
2023-03-10T06:27:37.480Z,1.59
2023-03-10T06:28:41.183Z,1.62
2023-03-10T06:29:44.024Z,1.61
2023-03-10T06:30:53.465Z,1.62
2023-03-10T06:31:56.320Z,1.64
2023-03-10T06:33:00.073Z,1.64
2023-03-10T06:34:04.551Z,1.65
2023-03-10T06:35:07.950Z,1.66
2023-03-10T06:36:11.764Z,1.67
2023-03-10T06:37:14.564Z,1.68
2023-03-10T06:38:17.401Z,1.70
2023-03-10T06:39:20.155Z,1.71
2023-03-10T06:40:23.008Z,1.72
2023-03-10T06:41:27.907Z,1.74
2023-03-10T06:42:31.910Z,1.75
2023-03-10T06:43:34.920Z,1.79
2023-03-10T06:44:37.742Z,1.79
2023-03-10T06:45:47.027Z,1.83
2023-03-10T06:46:49.898Z,1.83
2023-03-10T06:47:52.710Z,1.86
2023-03-10T06:48:56.506Z,1.89
2023-03-10T06:50:00.165Z,1.92
2023-03-10T06:51:05.713Z,1.95
2023-03-10T06:52:08.433Z,1.99
2023-03-10T06:53:11.645Z,2.02
2023-03-10T06:54:14.394Z,2.04
2023-03-10T06:55:17.631Z,2.07
2023-03-10T06:56:22.022Z,2.08
2023-03-10T06:57:24.773Z,2.11
2023-03-10T06:58:28.992Z,2.13
2023-03-10T06:59:32.806Z,2.16
2023-03-10T07:00:35.550Z,2.19
2023-03-10T07:01:38.396Z,2.22
2023-03-10T07:02:41.587Z,2.25
2023-03-10T07:03:44.354Z,2.28
2023-03-10T07:04:47.273Z,2.31
2023-03-10T07:05:50.212Z,2.32
2023-03-10T07:06:53.003Z,2.34
2023-03-10T07:07:56.090Z,2.35
2023-03-10T07:08:58.898Z,2.36
2023-03-10T07:10:01.655Z,2.38
2023-03-10T07:11:04.508Z,2.38
2023-03-10T07:12:07.439Z,2.38
2023-03-10T07:13:13.917Z,2.39
2023-03-10T07:14:16.701Z,2.40
2023-03-10T07:15:19.440Z,2.41
2023-03-10T07:16:22.696Z,2.41
2023-03-10T07:17:25.562Z,2.39
2023-03-10T07:18:29.711Z,2.40
2023-03-10T07:19:32.747Z,2.44
2023-03-10T07:20:35.984Z,2.44
2023-03-10T07:21:38.806Z,2.42
2023-03-10T07:22:42.030Z,2.46
2023-03-10T07:23:45.001Z,2.46
2023-03-10T07:24:47.916Z,2.47
2023-03-10T07:25:54.990Z,2.51
2023-03-10T07:27:01.446Z,2.53
2023-03-10T07:28:05.530Z,2.52
2023-03-10T07:29:08.291Z,2.53
2023-03-10T07:30:11.585Z,2.54
2023-03-10T07:31:14.657Z,2.56
2023-03-10T07:32:17.541Z,2.57
2023-03-10T07:33:20.656Z,2.58
2023-03-10T07:34:23.458Z,2.63
2023-03-10T07:35:26.556Z,2.64
2023-03-10T07:36:29.842Z,2.65
2023-03-10T07:37:32.630Z,2.64
2023-03-10T07:38:35.822Z,2.62
2023-03-10T07:39:38.742Z,2.63
2023-03-10T07:40:41.584Z,2.67
2023-03-10T07:41:44.572Z,2.67
2023-03-10T07:42:47.367Z,2.68
2023-03-10T07:43:52.360Z,2.71
2023-03-10T07:44:55.338Z,2.77
2023-03-10T07:45:58.259Z,2.77
2023-03-10T07:47:01.225Z,2.80
2023-03-10T07:49:00.113Z,2.91
2023-03-10T07:50:03.391Z,2.91
2023-03-10T07:51:06.383Z,2.93
2023-03-10T07:52:09.194Z,2.93
2023-03-10T07:53:11.922Z,2.94
2023-03-10T07:54:14.705Z,2.95
2023-03-10T07:55:17.869Z,2.98
2023-03-10T07:56:20.642Z,2.98
2023-03-10T07:57:23.438Z,3.01
2023-03-10T07:58:26.296Z,3.03
2023-03-10T07:59:29.084Z,3.06
2023-03-10T08:00:31.882Z,3.08
2023-03-10T08:01:34.679Z,3.10
2023-03-10T08:02:38.168Z,3.13
2023-03-10T08:03:41.170Z,3.16
2023-03-10T08:04:44.117Z,3.17
2023-03-10T08:05:47.648Z,3.17
2023-03-10T08:06:50.409Z,3.18
2023-03-10T08:07:53.172Z,3.16
2023-03-10T08:08:56.155Z,3.16
2023-03-10T08:09:59.034Z,3.16
2023-03-10T08:11:06.379Z,3.15
2023-03-10T08:12:09.328Z,3.15
2023-03-10T08:13:12.392Z,3.16
2023-03-10T08:14:16.091Z,3.17
2023-03-10T08:15:19.017Z,3.19
2023-03-10T08:16:22.619Z,3.20
2023-03-10T08:17:30.740Z,3.19
2023-03-10T08:18:33.541Z,3.20
2023-03-10T08:19:37.899Z,3.20
2023-03-10T08:20:40.819Z,3.21
2023-03-10T08:21:43.841Z,3.20
2023-03-10T08:22:46.615Z,3.20
2023-03-10T08:23:49.500Z,3.19
2023-03-10T08:24:52.556Z,3.19
2023-03-10T08:25:55.321Z,3.18
2023-03-10T08:26:58.359Z,3.18
2023-03-10T08:28:01.718Z,3.17
2023-03-10T08:29:04.464Z,3.15
2023-03-10T08:30:07.609Z,3.15
2023-03-10T08:31:12.117Z,3.15
2023-03-10T08:32:14.965Z,3.15
2023-03-10T08:33:17.854Z,3.15
2023-03-10T08:34:20.652Z,3.14
2023-03-10T08:35:23.403Z,3.15
2023-03-10T08:36:28.372Z,3.16
2023-03-10T08:37:31.368Z,3.17
2023-03-10T08:38:34.470Z,3.18
2023-03-10T08:39:37.793Z,3.20
2023-03-10T08:40:40.595Z,3.22
2023-03-10T08:41:49.159Z,3.25
2023-03-10T08:42:52.383Z,3.29
2023-03-10T08:43:56.640Z,3.33
2023-03-10T08:44:59.545Z,3.35
2023-03-10T08:46:02.581Z,3.38
2023-03-10T08:47:05.602Z,3.42
2023-03-10T08:48:08.495Z,3.45
2023-03-10T08:49:11.652Z,3.50
2023-03-10T08:50:14.591Z,3.54
2023-03-10T08:51:18.442Z,3.58
2023-03-10T08:52:21.192Z,3.63
2023-03-10T08:53:24.276Z,3.68
2023-03-10T08:54:27.379Z,3.74
2023-03-10T08:55:30.202Z,3.80
2023-03-10T08:56:33.064Z,3.85
2023-03-10T08:57:35.845Z,3.91
2023-03-10T08:58:38.921Z,3.94
2023-03-10T08:59:41.992Z,3.98
2023-03-10T09:00:45.073Z,4.02
2023-03-10T09:01:47.973Z,4.07
2023-03-10T09:02:50.869Z,4.10
2023-03-10T09:03:53.714Z,4.15
2023-03-10T09:04:56.493Z,4.18
2023-03-10T09:05:59.308Z,4.21
2023-03-10T09:07:02.101Z,4.23
2023-03-10T09:08:05.013Z,4.24
2023-03-10T09:09:08.520Z,4.27
2023-03-10T09:10:11.392Z,4.30
2023-03-10T09:11:19.649Z,4.32
2023-03-10T09:12:22.478Z,4.32
2023-03-10T09:13:25.260Z,4.33
2023-03-10T09:14:28.011Z,4.33
2023-03-10T09:15:30.907Z,4.36
2023-03-10T09:16:34.217Z,4.35
2023-03-10T09:17:39.486Z,4.37
2023-03-10T09:18:43.622Z,4.38
2023-03-10T09:19:46.463Z,4.41
2023-03-10T09:20:49.743Z,4.42
2023-03-10T09:21:52.505Z,4.44
2023-03-10T09:22:55.726Z,4.46
2023-03-10T09:23:58.785Z,4.46
2023-03-10T09:25:01.583Z,4.47
2023-03-10T09:26:04.369Z,4.47
2023-03-10T09:27:07.665Z,4.52
2023-03-10T09:28:11.783Z,4.51
2023-03-10T09:29:14.673Z,4.52
2023-03-10T09:30:17.841Z,4.57
2023-03-10T09:31:23.121Z,4.55
2023-03-10T09:32:26.128Z,4.59
2023-03-10T09:33:28.970Z,4.60
2023-03-10T09:34:31.880Z,4.58
2023-03-10T09:35:35.977Z,4.59
2023-03-10T09:36:40.307Z,4.61
2023-03-10T09:37:43.074Z,4.62
2023-03-10T09:38:45.860Z,4.62
2023-03-10T09:39:48.629Z,4.64
2023-03-10T09:40:56.699Z,4.64
2023-03-10T09:42:11.913Z,4.67
2023-03-10T09:43:16.271Z,4.69
2023-03-10T09:44:19.215Z,4.70
2023-03-10T09:45:47.350Z,4.70
2023-03-10T09:47:05.937Z,4.71
2023-03-10T09:48:12.902Z,4.71
2023-03-10T09:49:18.332Z,4.72
2023-03-10T09:50:27.224Z,4.73
2023-03-10T09:51:29.987Z,4.75
2023-03-10T09:52:44.278Z,4.76
2023-03-10T09:54:06.579Z,4.77
2023-03-10T09:55:19.422Z,4.79
2023-03-10T09:56:29.915Z,4.80
2023-03-10T09:57:33.555Z,4.81
2023-03-10T09:58:39.480Z,4.82
2023-03-10T09:59:43.422Z,4.82
2023-03-10T10:00:46.285Z,4.83
2023-03-10T10:01:50.557Z,4.84
2023-03-10T10:03:00.100Z,4.87
2023-03-10T10:04:08.228Z,4.86
2023-03-10T10:05:17.180Z,4.89
2023-03-10T10:06:27.965Z,4.95
2023-03-10T10:07:40.792Z,4.99
2023-03-10T10:08:54.708Z,4.99
2023-03-10T10:10:05.956Z,5.06
2023-03-10T10:11:13.944Z,5.10
2023-03-10T10:12:25.033Z,5.12
2023-03-10T10:13:29.971Z,5.16
2023-03-10T10:14:33.330Z,5.15
2023-03-10T10:15:38.089Z,5.18
2023-03-10T10:16:40.866Z,5.22
2023-03-10T10:18:08.612Z,5.26
2023-03-10T10:19:22.470Z,5.30
2023-03-10T10:20:32.457Z,5.36
2023-03-10T10:21:52.648Z,5.43
2023-03-10T10:22:55.440Z,5.49
2023-03-10T10:23:59.409Z,5.50
2023-03-10T10:25:08.497Z,5.55
2023-03-10T10:26:13.676Z,5.66
2023-03-10T10:27:18.739Z,5.68
2023-03-10T10:28:29.191Z,5.76
2023-03-10T10:29:38.997Z,5.77
2023-03-10T10:30:41.880Z,5.83
2023-03-10T10:32:02.036Z,5.87
2023-03-10T10:33:09.536Z,5.89
2023-03-10T10:34:22.252Z,5.93
2023-03-10T10:35:26.314Z,5.98
2023-03-10T10:36:33.014Z,6.07
2023-03-10T10:37:40.184Z,6.12
2023-03-10T10:38:48.463Z,6.15
2023-03-10T10:39:52.868Z,6.18
2023-03-10T10:41:05.785Z,6.22
2023-03-10T10:42:18.985Z,6.25
2023-03-10T10:43:22.313Z,6.26
2023-03-10T10:44:25.069Z,6.34
2023-03-10T10:45:30.426Z,6.39
2023-03-10T10:46:33.485Z,6.46
2023-03-10T10:47:49.945Z,6.52
2023-03-10T10:49:03.670Z,6.61
2023-03-10T10:50:26.411Z,6.67
2023-03-10T10:51:30.395Z,6.73
2023-03-10T10:52:33.625Z,6.79
2023-03-10T10:53:42.823Z,6.85
2023-03-10T10:54:51.989Z,6.92
2023-03-10T10:56:06.127Z,6.96
2023-03-10T10:57:20.103Z,7.00
2023-03-10T10:58:28.701Z,7.06
2023-03-10T10:59:35.701Z,7.08
2023-03-10T11:00:38.836Z,7.17
2023-03-10T11:01:54.987Z,7.18
2023-03-10T11:02:58.341Z,7.22
2023-03-10T11:04:06.328Z,7.27
2023-03-10T11:05:15.185Z,7.31
2023-03-10T11:06:27.217Z,7.36
2023-03-10T11:07:29.980Z,7.40
2023-03-10T11:08:37.501Z,7.43
2023-03-10T11:09:40.322Z,7.49
2023-03-10T11:10:44.169Z,7.52
2023-03-10T11:12:02.119Z,7.56
2023-03-10T11:13:16.487Z,7.64
2023-03-10T11:14:19.603Z,7.70
2023-03-10T11:15:31.026Z,7.73
2023-03-10T11:16:34.317Z,7.84
2023-03-10T11:17:56.161Z,7.87
2023-03-10T11:19:19.202Z,7.96
2023-03-10T11:20:41.066Z,8.07
2023-03-10T11:21:51.013Z,8.16
2023-03-10T11:22:57.182Z,8.31
2023-03-10T11:24:08.850Z,8.41
2023-03-10T11:25:19.231Z,8.47
2023-03-10T11:26:22.259Z,8.53
2023-03-10T11:27:43.650Z,8.61
2023-03-10T11:28:46.673Z,8.64
2023-03-10T11:29:49.497Z,8.73
2023-03-10T11:30:58.427Z,8.83
2023-03-10T11:32:01.233Z,8.89
2023-03-10T11:33:20.879Z,8.89
2023-03-10T11:34:31.588Z,8.91
2023-03-10T11:35:47.686Z,8.95
2023-03-10T11:37:14.444Z,8.96
2023-03-10T11:38:21.369Z,8.99
2023-03-10T11:39:43.839Z,9.06
2023-03-10T11:40:58.602Z,9.06
2023-03-10T11:42:06.622Z,9.08
2023-03-10T11:43:27.891Z,9.17
2023-03-10T11:44:57.814Z,9.16
2023-03-10T11:46:03.758Z,9.21
2023-03-10T11:47:13.836Z,9.33
2023-03-10T11:48:48.924Z,9.37
2023-03-10T11:49:57.801Z,9.38
2023-03-10T11:51:03.785Z,9.45
2023-03-10T11:52:18.865Z,9.56
2023-03-10T11:53:30.351Z,9.59
2023-03-10T11:54:51.578Z,9.77
2023-03-10T11:55:55.184Z,9.95
2023-03-10T11:56:58.376Z,10.03
2023-03-10T11:58:03.478Z,10.16
2023-03-10T11:59:10.078Z,10.30
2023-03-10T12:00:18.419Z,10.44
2023-03-10T12:01:28.402Z,10.54
2023-03-10T12:02:39.598Z,10.56
2023-03-10T12:03:48.550Z,10.65
2023-03-10T12:04:54.932Z,10.71
2023-03-10T12:05:58.988Z,10.83
2023-03-10T12:07:11.062Z,10.86
2023-03-10T12:08:15.749Z,10.91
2023-03-10T12:09:28.505Z,10.95
2023-03-10T12:10:33.804Z,10.97
2023-03-10T12:11:36.803Z,11.04
2023-03-10T12:12:41.456Z,11.03
2023-03-10T12:13:49.291Z,11.00
2023-03-10T12:14:52.822Z,11.02
2023-03-10T12:16:02.380Z,11.05
2023-03-10T12:17:05.609Z,11.08
2023-03-10T12:18:08.534Z,11.07
2023-03-10T12:19:11.434Z,11.08
2023-03-10T12:20:14.148Z,11.12
2023-03-10T12:21:27.411Z,11.14
2023-03-10T12:22:39.583Z,11.11
2023-03-10T12:23:43.911Z,11.11
2023-03-10T12:24:47.586Z,11.14
2023-03-10T12:25:53.474Z,11.11
2023-03-10T12:27:03.485Z,11.14
2023-03-10T12:28:12.068Z,11.11
2023-03-10T12:29:32.089Z,11.11
2023-03-10T12:30:58.175Z,11.14
2023-03-10T12:32:01.151Z,11.16
2023-03-10T12:33:03.993Z,11.24
2023-03-10T12:34:25.031Z,11.22
2023-03-10T12:35:50.884Z,11.20
2023-03-10T12:36:55.040Z,11.23
2023-03-10T12:38:16.257Z,11.30
2023-03-10T12:39:28.071Z,11.29
2023-03-10T12:41:03.408Z,11.33
2023-03-10T12:42:26.803Z,11.40
2023-03-10T12:43:38.673Z,11.45
2023-03-10T12:44:49.886Z,11.50
2023-03-10T12:45:52.802Z,11.55
2023-03-10T12:46:55.604Z,11.63
2023-03-10T12:48:01.894Z,11.68
2023-03-10T12:49:22.223Z,11.74
2023-03-10T12:50:30.920Z,11.81
2023-03-10T12:51:36.966Z,11.87
2023-03-10T12:52:45.042Z,11.94
2023-03-10T12:53:54.631Z,12.02
2023-03-10T12:55:24.453Z,12.10
2023-03-10T12:56:53.283Z,12.21
2023-03-10T12:58:03.153Z,12.33
2023-03-10T12:59:12.014Z,12.39
2023-03-10T13:00:27.666Z,12.46
2023-03-10T13:01:43.249Z,12.54
2023-03-10T13:02:51.609Z,12.66
2023-03-10T13:03:55.439Z,12.71
2023-03-10T13:05:15.224Z,12.76
2023-03-10T13:06:22.194Z,12.86
2023-03-10T13:07:25.067Z,12.94
2023-03-10T13:08:40.307Z,13.01
2023-03-10T13:09:45.668Z,13.08
2023-03-10T13:10:53.582Z,13.10
2023-03-10T13:11:56.296Z,13.13
2023-03-10T13:13:01.788Z,13.12
2023-03-10T13:14:09.997Z,13.12
2023-03-10T13:15:20.531Z,13.10
2023-03-10T13:16:23.387Z,13.08
2023-03-10T13:17:27.792Z,13.07
2023-03-10T13:18:30.731Z,13.05
2023-03-10T13:19:34.889Z,13.02
2023-03-10T13:20:38.082Z,13.00
2023-03-10T13:21:41.012Z,12.99
2023-03-10T13:22:57.152Z,12.97
2023-03-10T13:24:01.142Z,12.95
2023-03-10T13:25:06.063Z,12.94
2023-03-10T13:26:15.587Z,12.93
2023-03-10T13:27:19.682Z,12.87
2023-03-10T13:28:26.683Z,12.84
2023-03-10T13:29:29.538Z,12.83
2023-03-10T13:30:32.296Z,12.79
2023-03-10T13:31:35.086Z,12.76
2023-03-10T13:32:38.039Z,12.74
2023-03-10T13:33:52.234Z,12.71
2023-03-10T13:34:57.409Z,12.70
2023-03-10T13:36:00.205Z,12.69
2023-03-10T13:37:04.565Z,12.68
2023-03-10T13:38:07.382Z,12.68
2023-03-10T13:39:17.760Z,12.68
2023-03-10T13:40:20.609Z,12.68
2023-03-10T13:41:23.768Z,12.68
2023-03-10T13:42:40.993Z,12.67
2023-03-10T13:43:48.670Z,12.66
2023-03-10T13:44:52.573Z,12.65
2023-03-10T13:45:57.109Z,12.64
2023-03-10T13:47:01.501Z,12.64
2023-03-10T13:48:05.151Z,12.64
2023-03-10T13:49:08.406Z,12.65
2023-03-10T13:50:14.761Z,12.64
2023-03-10T13:51:22.585Z,12.65
2023-03-10T13:52:27.592Z,12.66
2023-03-10T13:53:30.360Z,12.67
2023-03-10T13:54:34.490Z,12.67
2023-03-10T13:55:40.812Z,12.69
2023-03-10T13:56:43.979Z,12.69
2023-03-10T13:57:48.460Z,12.75
2023-03-10T13:58:52.757Z,12.71
2023-03-10T13:59:57.072Z,12.70
2023-03-10T14:01:00.988Z,12.71
2023-03-10T14:02:04.091Z,12.71
2023-03-10T14:03:08.023Z,12.70
2023-03-10T14:04:15.658Z,12.70
2023-03-10T14:05:37.084Z,12.72
2023-03-10T14:06:39.985Z,12.75
2023-03-10T14:07:58.174Z,12.76
2023-03-10T14:09:19.673Z,12.78
2023-03-10T14:10:22.433Z,12.81
2023-03-10T14:11:38.717Z,12.83
2023-03-10T14:12:45.910Z,12.84
2023-03-10T14:13:48.745Z,12.83
2023-03-10T14:14:52.130Z,12.87
2023-03-10T14:15:55.189Z,12.85
2023-03-10T14:16:58.047Z,12.86
2023-03-10T14:18:06.958Z,12.87
2023-03-10T14:19:10.422Z,12.88
2023-03-10T14:20:30.183Z,12.89
2023-03-10T14:21:33.523Z,12.88
2023-03-10T14:22:37.841Z,12.85
2023-03-10T14:23:40.631Z,12.84
2023-03-10T14:24:43.377Z,12.84
2023-03-10T14:25:46.911Z,12.83
2023-03-10T14:26:49.668Z,12.81
2023-03-10T14:27:55.421Z,12.80
2023-03-10T14:29:00.342Z,12.79
2023-03-10T14:30:09.839Z,12.80
2023-03-10T14:31:21.200Z,12.80